createdAt,value
2023-01-28T00:00:13.885Z,100055.88
2023-01-28T00:02:39.972Z,100060.53
2023-01-28T00:05:06.414Z,100059.13
2023-01-28T00:07:34.879Z,100060.22
2023-01-28T00:10:02.345Z,100048.41
2023-01-28T00:12:30.331Z,100041.00
2023-01-28T00:14:57.721Z,100041.28
2023-01-28T00:17:25.434Z,100050.78
2023-01-28T00:19:53.399Z,100061.13
2023-01-28T00:22:20.736Z,100056.16
2023-01-28T00:24:48.525Z,100058.00
2023-01-28T00:27:16.419Z,100060.81
2023-01-28T00:29:44.036Z,100059.00
2023-01-28T00:32:13.521Z,100068.59
2023-01-28T00:34:41.254Z,100068.84
2023-01-28T00:37:08.590Z,100069.78
2023-01-28T00:39:36.279Z,100060.41
2023-01-28T00:42:04.101Z,100067.34
2023-01-28T00:44:32.119Z,100056.75
2023-01-28T00:47:03.842Z,100052.56
2023-01-28T00:49:31.514Z,100048.19
2023-01-28T00:51:58.999Z,100042.06
2023-01-28T00:54:26.972Z,100042.22
2023-01-28T00:56:55.197Z,100038.88
2023-01-28T00:59:22.788Z,100050.97
2023-01-28T01:01:51.004Z,100050.16
2023-01-28T01:04:27.178Z,100050.91
2023-01-28T01:06:54.932Z,100044.06
2023-01-28T01:09:23.277Z,100044.97
2023-01-28T01:11:51.234Z,100043.03
2023-01-28T01:14:19.076Z,100037.88
2023-01-28T01:16:47.475Z,100030.03
2023-01-28T01:19:15.460Z,100036.16
2023-01-28T01:21:43.640Z,100041.44
2023-01-28T01:24:13.784Z,100037.13
2023-01-28T01:26:41.434Z,100027.88
2023-01-28T01:29:10.486Z,100023.59
2023-01-28T01:31:38.405Z,100027.91
2023-01-28T01:34:06.060Z,100023.78
2023-01-28T01:36:33.563Z,100032.28
2023-01-28T01:39:00.778Z,100037.34
2023-01-28T01:41:31.495Z,100022.66
2023-01-28T01:44:05.065Z,100025.34
2023-01-28T01:46:51.592Z,100032.28
2023-01-28T01:49:26.495Z,100033.84
2023-01-28T01:52:00.707Z,100023.41
2023-01-28T01:54:32.380Z,100031.34
2023-01-28T01:57:01.891Z,100024.50
2023-01-28T01:59:33.953Z,100014.19
2023-01-28T02:02:04.112Z,100018.31
2023-01-28T02:04:36.018Z,100016.56
2023-01-28T02:07:04.681Z,100008.81
2023-01-28T02:09:36.521Z,100013.06
2023-01-28T02:12:10.940Z,100012.31
2023-01-28T02:14:54.995Z,100004.66
2023-01-28T02:17:23.267Z,100002.69
2023-01-28T02:20:02.987Z,100002.78
2023-01-28T02:23:21.741Z,100006.25
2023-01-28T02:26:04.337Z,100014.00
2023-01-28T02:28:46.878Z,100006.00
2023-01-28T02:31:26.825Z,100004.22
2023-01-28T02:34:11.007Z,99998.78
2023-01-28T02:36:54.207Z,100010.81
2023-01-28T02:39:29.328Z,100002.88
2023-01-28T02:42:33.880Z,100006.38
2023-01-28T02:45:01.108Z,100025.34
2023-01-28T02:47:47.184Z,100018.19
2023-01-28T02:50:20.083Z,100019.16
2023-01-28T02:53:35.465Z,100009.69
2023-01-28T02:56:39.042Z,100006.09
2023-01-28T02:59:34.500Z,100008.97
2023-01-28T03:02:08.856Z,100022.75
2023-01-28T03:04:52.012Z,100022.66
2023-01-28T03:07:20.959Z,100018.19
2023-01-28T03:09:51.606Z,100017.25
2023-01-28T03:12:40.799Z,100013.88
2023-01-28T03:15:36.708Z,100024.19
2023-01-28T03:18:28.831Z,100011.31
2023-01-28T03:21:30.701Z,100007.66
2023-01-28T03:24:25.417Z,100013.66
2023-01-28T03:27:14.503Z,100010.06
2023-01-28T03:30:04.330Z,100016.94
2023-01-28T03:32:51.874Z,100009.28
2023-01-28T03:35:41.919Z,100012.63
2023-01-28T03:38:23.932Z,100014.72
2023-01-28T03:40:55.975Z,100002.88
2023-01-28T03:43:23.984Z,99999.47
2023-01-28T03:45:51.706Z,100011.47
2023-01-28T08:03:57.705Z,100048.34
2023-01-28T08:06:23.861Z,100046.09
2023-01-28T08:08:49.876Z,100042.84
2023-01-28T08:11:17.463Z,100042.13
2023-01-28T08:13:44.803Z,100042.41
2023-01-28T08:16:12.314Z,100042.75
2023-01-28T08:18:40.434Z,100047.34
2023-01-28T08:21:07.883Z,100046.63
2023-01-28T08:23:35.495Z,100048.00
2023-01-28T08:26:02.871Z,100042.28
2023-01-28T08:28:30.897Z,100042.25
2023-01-28T08:31:01.277Z,100038.81
2023-01-28T08:33:28.658Z,100046.44
2023-01-28T08:35:56.468Z,100045.75
2023-01-28T08:38:24.141Z,100041.50
2023-01-28T08:40:53.957Z,100030.13
2023-01-28T08:43:22.102Z,100032.91
2023-01-28T08:45:49.636Z,100036.41
2023-01-28T08:48:18.968Z,100031.13
2023-01-28T08:50:46.634Z,100023.47
2023-01-28T08:53:19.511Z,100021.81
2023-01-28T08:55:47.886Z,100026.03
2023-01-28T08:58:17.460Z,100023.31
2023-01-28T09:00:46.210Z,100023.88
2023-01-28T09:03:13.465Z,100016.94
2023-01-28T09:05:40.956Z,100016.13
2023-01-28T09:08:12.034Z,100017.97
2023-01-28T09:10:41.407Z,100012.88
2023-01-28T09:13:11.950Z,100012.19
2023-01-28T09:15:39.935Z,100007.06
2023-01-28T09:18:07.908Z,100009.63
2023-01-28T09:20:35.689Z,100006.34
2023-01-28T09:23:03.794Z,99997.72
2023-01-28T09:25:31.315Z,99999.47
2023-01-28T09:27:59.425Z,99989.91
2023-01-28T09:30:27.467Z,99980.28
2023-01-28T09:32:56.319Z,99981.25
2023-01-28T09:35:24.637Z,99984.72
2023-01-28T09:37:52.472Z,99992.59
2023-01-28T09:40:38.644Z,99995.19
2023-01-28T09:43:26.059Z,99997.69
2023-01-28T09:45:58.998Z,99994.94
2023-01-28T09:48:34.152Z,99987.00
2023-01-28T09:51:02.114Z,99989.63
2023-01-28T09:53:37.395Z,99987.91
2023-01-28T09:56:08.823Z,99985.38
2023-01-28T09:58:36.411Z,99988.88
2023-01-28T10:01:34.741Z,99983.69
2023-01-28T10:04:59.122Z,99967.28
2023-01-28T10:07:29.258Z,99958.56
2023-01-28T10:10:09.132Z,99964.56
2023-01-28T10:13:15.453Z,99962.00
2023-01-28T10:16:02.228Z,99958.69
2023-01-28T10:18:50.752Z,99952.69
2023-01-28T10:21:27.946Z,99950.88
2023-01-28T10:24:26.179Z,99946.44
2023-01-28T10:26:53.956Z,99938.66
2023-01-28T10:29:26.105Z,99944.75
2023-01-28T10:32:04.467Z,99945.59
2023-01-28T10:34:32.616Z,99944.66
2023-01-28T10:37:00.619Z,99949.03
2023-01-28T10:39:30.085Z,99942.91
2023-01-28T10:41:59.014Z,99941.09
2023-01-28T10:44:47.034Z,99942.78
2023-01-28T10:47:25.843Z,99948.00
2023-01-28T10:50:00.061Z,99940.94
2023-01-28T10:52:27.710Z,99940.06
2023-01-28T10:55:06.737Z,99940.19
2023-01-28T10:57:35.715Z,99942.66
2023-01-28T11:00:21.553Z,99943.47
2023-01-28T11:02:51.193Z,99947.84
2023-01-28T11:05:27.623Z,99945.25
2023-01-28T11:08:15.722Z,99936.81
2023-01-28T11:10:44.573Z,99944.47
2023-01-28T11:13:28.542Z,99942.66
2023-01-28T11:16:05.144Z,99935.72
2023-01-28T11:18:35.543Z,99934.22
2023-01-28T11:21:16.154Z,99936.03
2023-01-28T11:24:23.696Z,99931.81
2023-01-28T11:26:54.521Z,99925.75
2023-01-28T11:29:30.613Z,99917.91
2023-01-28T11:31:59.928Z,99921.38
2023-01-28T11:34:30.786Z,99923.97
2023-01-28T11:37:16.539Z,99911.84
2023-01-28T11:39:44.495Z,99916.22
2023-01-28T11:42:19.577Z,99913.59
2023-01-28T11:44:48.622Z,99902.25
2023-01-28T11:47:21.731Z,99903.00
2023-01-28T11:49:49.212Z,99911.63
2023-01-28T11:52:28.517Z,99907.34
2023-01-28T11:55:19.011Z,99906.50
2023-01-28T11:58:07.643Z,99906.41
2023-01-28T12:00:37.841Z,99904.81
2023-01-28T12:03:50.096Z,99895.41
2023-01-28T12:06:36.556Z,99888.34
2023-01-28T12:09:22.299Z,99884.47
2023-01-28T12:12:14.141Z,99875.34
2023-01-28T16:02:24.053Z,99943.38
2023-01-28T16:05:01.100Z,99943.59
2023-01-28T16:07:33.500Z,99950.06
2023-01-28T16:10:03.171Z,99948.72
2023-01-28T16:12:30.604Z,99945.53
2023-01-28T16:15:00.830Z,99953.69
2023-01-28T16:17:36.014Z,99943.78
2023-01-28T16:20:07.159Z,99943.34
2023-01-28T16:22:43.863Z,99948.16
2023-01-28T16:25:30.707Z,99942.81
2023-01-28T16:27:59.186Z,99939.13
2023-01-28T16:30:27.325Z,99945.00
2023-01-28T16:32:58.699Z,99951.75
2023-01-28T16:35:46.950Z,99944.84
2023-01-28T16:38:19.010Z,99941.31
2023-01-28T16:40:47.779Z,99947.97
2023-01-28T16:43:16.677Z,99948.59
2023-01-28T16:45:46.164Z,99944.78
2023-01-28T16:48:13.567Z,99943.50
2023-01-28T16:50:43.029Z,99943.13
2023-01-28T16:53:19.241Z,99946.97
2023-01-28T16:55:46.726Z,99944.69
2023-01-28T16:58:14.513Z,99938.09
2023-01-28T17:00:42.451Z,99939.97
2023-01-28T17:03:09.461Z,99933.31
2023-01-28T17:05:36.817Z,99927.41
2023-01-28T17:08:03.964Z,99933.63
2023-01-28T17:10:31.171Z,99928.56
2023-01-28T17:12:59.145Z,99931.31
2023-01-28T17:15:26.169Z,99935.72
2023-01-28T17:17:53.941Z,99935.00
2023-01-28T17:20:21.419Z,99938.56
2023-01-28T17:22:48.578Z,99937.78
2023-01-28T17:25:16.086Z,99941.38
2023-01-28T17:27:43.823Z,99940.53
2023-01-28T17:30:11.555Z,99937.16
2023-01-28T17:32:38.780Z,99937.22
2023-01-28T17:35:06.447Z,99935.63
2023-01-28T17:37:33.456Z,99930.50
2023-01-28T17:40:00.861Z,99932.31
2023-01-28T17:42:28.469Z,99932.38
2023-01-28T17:44:56.055Z,99935.91
2023-01-28T17:47:23.225Z,99935.97
2023-01-28T17:49:50.572Z,99931.66
2023-01-28T17:52:17.649Z,99932.56
2023-01-28T17:54:44.972Z,99937.81
2023-01-28T17:57:12.274Z,99937.88
2023-01-28T17:59:39.474Z,99925.78
2023-01-28T18:02:07.320Z,99937.06
2023-01-28T18:04:41.652Z,99942.31
2023-01-28T18:07:11.521Z,99934.63
2023-01-28T18:09:44.807Z,99941.53
2023-01-28T18:12:16.213Z,99941.59
2023-01-28T18:14:44.107Z,99944.22
2023-01-28T18:17:12.032Z,99942.50
2023-01-28T18:19:39.268Z,99944.28
2023-01-28T18:22:06.856Z,99951.22
2023-01-28T18:24:34.789Z,99944.28
2023-01-28T18:27:03.471Z,99959.88
2023-01-28T18:29:32.120Z,99961.59
2023-01-28T18:32:00.574Z,99965.09
2023-01-28T18:34:31.394Z,99967.69
2023-01-28T18:36:59.430Z,99961.66
2023-01-28T18:39:30.425Z,99967.75
2023-01-28T18:41:58.768Z,99964.28
2023-01-28T18:44:30.457Z,99970.34
2023-01-28T18:46:57.980Z,99973.88
2023-01-28T18:49:25.471Z,99973.91
2023-01-28T18:51:52.908Z,99962.63
2023-01-28T18:54:21.060Z,99964.34
2023-01-28T18:56:49.566Z,99974.75
2023-01-28T18:59:17.023Z,99966.16
2023-01-28T19:01:47.945Z,99960.09
2023-01-28T19:04:16.158Z,99957.50
2023-01-28T19:06:43.589Z,99960.09
2023-01-28T19:09:13.091Z,99950.56
2023-01-28T19:11:42.086Z,99957.53
2023-01-28T19:14:13.235Z,99954.09
2023-01-28T19:16:40.515Z,99956.66
2023-01-28T19:19:08.148Z,99949.75
2023-01-28T19:21:36.111Z,99955.84
2023-01-28T19:24:12.918Z,99951.50
2023-01-28T19:26:43.162Z,99951.53
2023-01-28T19:29:13.431Z,99955.03
2023-01-28T19:31:43.464Z,99960.22
2023-01-28T19:34:11.386Z,99956.75
2023-01-28T19:36:39.097Z,99959.38
2023-01-28T19:39:08.860Z,99957.63
2023-01-28T19:41:36.895Z,99958.53
2023-01-28T19:44:05.311Z,99959.34
2023-01-28T19:46:33.767Z,99962.84
2023-01-28T19:49:01.410Z,99961.13
2023-01-28T19:51:28.967Z,99962.81
2023-01-28T19:53:56.486Z,99965.44
2023-01-28T23:49:42.904Z,99962.13
2023-01-28T23:52:09.416Z,99964.59
2023-01-28T23:54:35.792Z,99957.44
2023-01-28T23:57:02.717Z,99963.59
2023-01-28T23:59:34.125Z,99965.53
